createdAt,value
2023-10-10T00:01:07.087Z,9.28
2023-10-10T00:03:37.929Z,9.29
2023-10-10T00:06:09.569Z,9.28
2023-10-10T00:08:41.792Z,9.25
2023-10-10T00:11:16.075Z,9.29
2023-10-10T00:13:44.601Z,9.31
2023-10-10T00:16:13.750Z,9.26
2023-10-10T00:18:47.036Z,9.10
2023-10-10T00:21:24.155Z,9.19
2023-10-10T00:23:52.594Z,9.08
2023-10-10T00:26:23.309Z,9.25
2023-10-10T00:28:58.814Z,9.25
2023-10-10T00:31:28.488Z,9.30
2023-10-10T00:33:56.538Z,9.30
2023-10-10T00:36:32.494Z,9.21
2023-10-10T00:39:19.394Z,9.23
2023-10-10T00:41:52.455Z,9.17
2023-10-10T00:44:20.733Z,9.23
2023-10-10T00:46:56.711Z,9.27
2023-10-10T00:49:26.803Z,9.28
2023-10-10T00:51:57.229Z,9.15
2023-10-10T00:54:27.201Z,9.21
2023-10-10T00:56:56.191Z,9.24
2023-10-10T00:59:30.647Z,9.25
2023-10-10T01:01:57.982Z,9.19
2023-10-10T01:04:39.151Z,9.17
2023-10-10T01:07:11.454Z,9.18
2023-10-10T01:09:41.613Z,9.19
2023-10-10T01:12:11.214Z,9.20
2023-10-10T01:14:39.845Z,9.23
2023-10-10T01:17:13.455Z,9.09
2023-10-10T01:19:40.537Z,9.03
2023-10-10T01:22:23.594Z,9.04
2023-10-10T01:24:54.685Z,9.13
2023-10-10T01:27:23.546Z,9.13
2023-10-10T01:30:11.410Z,9.20
2023-10-10T01:32:40.856Z,9.16
2023-10-10T01:35:17.607Z,8.92
2023-10-10T01:37:55.835Z,8.92
2023-10-10T01:40:25.426Z,9.18
2023-10-10T01:42:55.387Z,9.21
2023-10-10T01:45:24.978Z,9.11
2023-10-10T01:48:09.404Z,9.24
2023-10-10T01:50:36.583Z,9.31
2023-10-10T01:53:11.909Z,9.31
2023-10-10T01:55:38.903Z,9.40
2023-10-10T01:58:12.696Z,9.42
2023-10-10T02:00:40.793Z,9.35
2023-10-10T02:03:08.103Z,9.40
2023-10-10T02:05:38.324Z,9.44
2023-10-10T02:08:26.879Z,9.39
2023-10-10T02:10:56.035Z,9.44
2023-10-10T02:13:23.664Z,9.46
2023-10-10T02:15:50.876Z,9.48
2023-10-10T02:18:38.015Z,9.49
2023-10-10T02:21:17.630Z,9.47
2023-10-10T02:23:46.329Z,9.47
2023-10-10T02:26:25.410Z,9.46
2023-10-10T02:29:12.807Z,9.44
2023-10-10T02:31:43.470Z,9.45
2023-10-10T02:34:11.886Z,9.45
2023-10-10T02:36:42.357Z,9.44
2023-10-10T02:39:18.107Z,9.38
2023-10-10T02:41:53.118Z,9.31
2023-10-10T02:44:35.526Z,9.42
2023-10-10T02:47:03.596Z,9.21
2023-10-10T02:49:30.787Z,9.30
2023-10-10T02:51:58.478Z,9.29
2023-10-10T02:54:32.935Z,9.25
2023-10-10T02:57:25.449Z,9.39
2023-10-10T03:00:00.416Z,9.40
2023-10-10T03:02:42.205Z,9.24
2023-10-10T03:05:16.483Z,9.44
2023-10-10T03:07:53.139Z,9.48
2023-10-10T03:10:24.079Z,9.26
2023-10-10T03:12:53.764Z,9.43
2023-10-10T03:15:21.203Z,9.33
2023-10-10T03:17:52.206Z,9.49
2023-10-10T03:20:25.952Z,9.37
2023-10-10T03:23:08.741Z,9.50
2023-10-10T03:25:53.163Z,9.54
2023-10-10T03:28:21.214Z,9.48
2023-10-10T03:31:17.388Z,9.56
2023-10-10T03:33:44.793Z,9.59
2023-10-10T03:36:20.152Z,9.56
2023-10-10T03:38:49.349Z,9.58
2023-10-10T03:41:36.074Z,9.53
2023-10-10T03:44:21.841Z,9.54
2023-10-10T03:47:01.447Z,9.57
2023-10-10T03:50:02.291Z,9.57
2023-10-10T03:52:48.199Z,9.53
2023-10-10T03:55:33.602Z,9.54
2023-10-10T03:58:19.210Z,9.55
2023-10-10T04:01:04.550Z,9.58
2023-10-10T04:03:50.650Z,9.51
2023-10-10T04:06:36.489Z,9.57
2023-10-10T04:09:22.055Z,9.57
2023-10-10T04:12:07.756Z,9.54
2023-10-10T04:14:53.366Z,9.54
2023-10-10T04:17:38.874Z,9.44
2023-10-10T04:20:25.184Z,9.43
2023-10-10T04:23:11.181Z,9.54
2023-10-10T04:25:57.200Z,9.52
2023-10-10T04:28:43.142Z,9.58
2023-10-10T04:31:28.668Z,9.52
2023-10-10T04:34:14.638Z,9.55
2023-10-10T04:37:00.703Z,9.56
2023-10-10T04:39:46.310Z,9.58
2023-10-10T04:42:32.210Z,9.43
2023-10-10T04:45:17.869Z,9.59
2023-10-10T04:48:03.844Z,9.61
2023-10-10T04:50:49.806Z,9.62
2023-10-10T04:53:35.612Z,9.52
2023-10-10T04:56:21.404Z,9.47
2023-10-10T04:59:07.104Z,9.39
2023-10-10T05:01:52.995Z,9.51
2023-10-10T05:04:38.764Z,9.52
2023-10-10T05:07:24.542Z,9.58
2023-10-10T05:10:10.356Z,9.57
2023-10-10T05:12:55.586Z,9.58
2023-10-10T05:15:41.348Z,9.60
2023-10-10T05:18:27.290Z,9.63
2023-10-10T05:21:14.471Z,9.67
2023-10-10T05:23:49.124Z,9.58
2023-10-10T05:26:21.066Z,9.72
2023-10-10T05:28:49.707Z,9.75
2023-10-10T05:31:22.438Z,9.73
2023-10-10T05:33:50.074Z,9.61
2023-10-10T05:36:19.822Z,9.72
2023-10-10T05:38:49.534Z,9.70
2023-10-10T05:41:20.357Z,9.54
2023-10-10T05:43:51.333Z,9.69
2023-10-10T05:46:18.759Z,9.68
2023-10-10T05:48:47.824Z,9.72
2023-10-10T05:51:15.046Z,9.79
2023-10-10T05:53:42.415Z,9.81
2023-10-10T05:56:17.204Z,9.88
2023-10-10T05:58:45.884Z,10.05
2023-10-10T06:01:15.187Z,10.14
2023-10-10T06:03:43.841Z,10.06
2023-10-10T06:06:13.819Z,10.11
2023-10-10T06:08:44.520Z,10.23
2023-10-10T06:11:15.905Z,10.23
2023-10-10T06:13:45.705Z,10.07
2023-10-10T06:16:16.320Z,10.07
2023-10-10T06:18:46.598Z,10.16
2023-10-10T06:21:16.156Z,10.18
2023-10-10T06:23:45.968Z,10.21
2023-10-10T06:26:14.318Z,10.17
2023-10-10T06:28:49.184Z,10.15
2023-10-10T06:31:33.423Z,10.03
2023-10-10T06:34:00.950Z,10.04
2023-10-10T06:36:34.017Z,10.08
2023-10-10T06:39:21.432Z,10.12
2023-10-10T06:41:52.053Z,10.31
2023-10-10T06:44:41.278Z,10.50
2023-10-10T06:47:13.282Z,10.58
2023-10-10T06:50:01.111Z,10.74
2023-10-10T06:52:30.573Z,10.52
2023-10-10T06:54:57.960Z,10.74
2023-10-10T06:57:45.574Z,10.57
2023-10-10T07:00:17.999Z,10.64
2023-10-10T07:02:49.845Z,10.48
2023-10-10T07:05:20.280Z,10.53
2023-10-10T07:07:53.598Z,10.49
2023-10-10T07:10:34.972Z,10.57
2023-10-10T07:13:03.008Z,10.63
2023-10-10T07:15:37.875Z,10.64
2023-10-10T07:18:23.553Z,10.64
2023-10-10T07:21:30.094Z,10.74
2023-10-10T07:24:16.326Z,10.76
2023-10-10T07:26:44.885Z,10.82
2023-10-10T07:29:48.649Z,10.86
2023-10-10T07:32:18.822Z,10.72
2023-10-10T07:34:52.963Z,10.58
2023-10-10T07:37:20.409Z,10.46
2023-10-10T07:40:10.543Z,10.50
2023-10-10T07:42:38.793Z,10.46
2023-10-10T07:45:15.517Z,10.47
2023-10-10T07:48:15.600Z,10.55
2023-10-10T07:50:49.101Z,10.61
2023-10-10T07:53:18.521Z,10.46
2023-10-10T07:56:00.341Z,10.61
2023-10-10T07:58:53.496Z,10.74
2023-10-10T08:01:22.101Z,10.74
2023-10-10T08:03:49.716Z,10.59
2023-10-10T08:06:20.305Z,10.79
2023-10-10T08:08:50.482Z,10.82
2023-10-10T08:11:27.206Z,10.90
2023-10-10T08:13:54.161Z,11.01
2023-10-10T08:16:22.790Z,11.11
2023-10-10T08:18:49.993Z,11.10
2023-10-10T08:21:17.906Z,11.19
2023-10-10T08:23:47.544Z,11.10
2023-10-10T08:26:26.136Z,11.16
2023-10-10T08:28:54.346Z,11.10
2023-10-10T08:31:24.078Z,11.09
2023-10-10T08:33:51.565Z,11.10
2023-10-10T08:36:24.920Z,11.14
2023-10-10T08:38:59.829Z,11.14
2023-10-10T08:41:30.091Z,11.11
2023-10-10T08:44:02.772Z,11.13
2023-10-10T08:46:32.117Z,11.10
2023-10-10T08:49:00.693Z,11.13
2023-10-10T08:51:35.346Z,11.12
2023-10-10T08:54:11.264Z,11.07
2023-10-10T08:56:44.275Z,11.18
2023-10-10T08:59:12.436Z,11.21
2023-10-10T09:01:41.025Z,11.25
2023-10-10T09:04:13.997Z,11.29
2023-10-10T09:06:59.521Z,11.35
2023-10-10T09:09:39.252Z,11.35
2023-10-10T09:12:15.683Z,11.31
2023-10-10T09:14:45.211Z,11.39
2023-10-10T09:17:37.501Z,11.51
2023-10-10T09:20:19.129Z,11.45
2023-10-10T09:22:53.102Z,11.38
2023-10-10T09:25:21.406Z,11.43
2023-10-10T09:28:00.370Z,11.45
2023-10-10T09:30:35.924Z,11.39
2023-10-10T09:33:36.884Z,11.42
2023-10-10T09:36:11.113Z,11.44
2023-10-10T09:38:46.817Z,11.35
2023-10-10T09:41:27.731Z,11.31
2023-10-10T09:44:24.475Z,11.27
2023-10-10T09:47:37.246Z,11.32
2023-10-10T09:50:22.030Z,11.27
2023-10-10T09:52:59.631Z,11.20
2023-10-10T09:55:32.739Z,11.29
2023-10-10T09:58:07.079Z,11.36
2023-10-10T10:00:38.564Z,11.33
2023-10-10T10:03:29.257Z,11.42
2023-10-10T10:06:03.873Z,11.37
2023-10-10T10:08:43.755Z,11.51
2023-10-10T10:11:27.454Z,11.47
2023-10-10T10:14:22.118Z,11.46
2023-10-10T10:17:01.098Z,11.40
2023-10-10T10:19:29.875Z,11.50
2023-10-10T10:22:10.087Z,11.63
2023-10-10T10:24:46.572Z,11.56
2023-10-10T10:27:35.720Z,11.68
2023-10-10T10:30:20.537Z,12.12
2023-10-10T10:32:49.654Z,12.48
2023-10-10T10:35:25.459Z,12.55
2023-10-10T10:37:57.879Z,12.31
2023-10-10T10:40:42.458Z,11.94
2023-10-10T10:43:16.597Z,12.15
2023-10-10T10:45:52.779Z,11.77
2023-10-10T10:48:37.128Z,11.76
2023-10-10T10:51:24.073Z,12.05
2023-10-10T10:54:00.773Z,11.82
2023-10-10T10:56:31.311Z,11.73
2023-10-10T10:59:20.896Z,11.70
2023-10-10T11:01:58.838Z,11.77
2023-10-10T11:04:33.212Z,11.72
2023-10-10T11:07:16.857Z,11.75
2023-10-10T11:10:07.600Z,11.61
2023-10-10T11:12:38.162Z,11.75
2023-10-10T11:15:12.679Z,12.05
2023-10-10T11:17:40.938Z,12.01
2023-10-10T11:20:31.210Z,11.90
2023-10-10T11:23:12.668Z,11.86
2023-10-10T11:25:46.789Z,11.79
2023-10-10T11:28:23.154Z,11.78
2023-10-10T11:30:51.911Z,11.51
2023-10-10T11:33:32.816Z,11.76
2023-10-10T11:36:23.606Z,11.75
2023-10-10T11:38:57.153Z,11.82
2023-10-10T11:41:30.790Z,11.78
2023-10-10T11:44:04.383Z,11.90
2023-10-10T11:46:32.229Z,12.03
2023-10-10T11:49:01.281Z,12.18
2023-10-10T11:51:35.656Z,12.13
2023-10-10T11:54:03.406Z,11.98
2023-10-10T11:56:35.958Z,12.06
2023-10-10T11:59:15.465Z,12.06
2023-10-10T12:01:52.897Z,12.03
2023-10-10T12:04:39.390Z,12.00
2023-10-10T12:07:07.612Z,12.05
2023-10-10T12:09:35.327Z,12.22
2023-10-10T12:12:05.261Z,12.17
2023-10-10T12:14:33.491Z,12.26
2023-10-10T12:17:06.477Z,12.52
2023-10-10T12:19:38.113Z,12.93
2023-10-10T12:22:10.131Z,13.20
2023-10-10T12:24:43.299Z,13.15
2023-10-10T12:27:14.875Z,13.51
2023-10-10T12:29:42.461Z,13.71
2023-10-10T12:32:16.960Z,14.03
2023-10-10T12:34:47.332Z,14.10
2023-10-10T12:37:16.865Z,14.52
2023-10-10T12:39:45.099Z,14.65
2023-10-10T12:42:12.758Z,14.72
2023-10-10T12:44:39.758Z,14.70
2023-10-10T12:47:09.599Z,14.24
2023-10-10T12:49:45.906Z,14.54
2023-10-10T12:52:13.749Z,14.09
2023-10-10T12:54:43.296Z,13.56
2023-10-10T12:57:15.402Z,13.60
2023-10-10T12:59:47.932Z,13.66
2023-10-10T13:02:17.096Z,13.88
2023-10-10T13:04:48.404Z,14.16
2023-10-10T13:07:17.621Z,14.36
2023-10-10T13:09:47.818Z,14.10
2023-10-10T13:12:19.861Z,14.74
2023-10-10T13:14:52.110Z,15.20
2023-10-10T13:17:31.794Z,15.20
2023-10-10T13:20:00.424Z,14.97
2023-10-10T13:22:30.603Z,15.25
2023-10-10T13:24:58.004Z,15.22
2023-10-10T13:27:26.704Z,15.32
2023-10-10T13:29:54.198Z,15.13
2023-10-10T13:32:21.728Z,15.33
2023-10-10T13:34:49.327Z,15.43
2023-10-10T13:37:16.433Z,15.36
2023-10-10T13:39:49.652Z,15.35
2023-10-10T13:42:18.948Z,15.34
2023-10-10T13:44:46.655Z,15.16
2023-10-10T13:47:14.633Z,15.48
2023-10-10T13:50:01.932Z,15.58
2023-10-10T13:52:28.858Z,15.32
2023-10-10T13:54:55.919Z,15.43
2023-10-10T13:57:22.793Z,15.33
2023-10-10T13:59:50.713Z,15.46
2023-10-10T14:02:18.363Z,15.29
2023-10-10T14:04:50.046Z,15.24
2023-10-10T14:07:17.527Z,15.12
2023-10-10T14:10:02.278Z,15.17
2023-10-10T14:12:33.890Z,15.01
2023-10-10T14:15:02.937Z,14.85
2023-10-10T14:17:31.395Z,14.76
2023-10-10T14:20:00.634Z,14.89
2023-10-10T14:22:32.206Z,14.96
2023-10-10T14:25:05.073Z,14.82
2023-10-10T14:27:32.893Z,14.81
2023-10-10T14:30:04.802Z,14.80
2023-10-10T14:32:38.741Z,14.79
2023-10-10T14:35:07.582Z,14.65
2023-10-10T14:37:49.858Z,14.77
2023-10-10T14:40:24.237Z,14.74
2023-10-10T14:42:53.531Z,14.93
2023-10-10T14:45:25.799Z,14.99
2023-10-10T14:47:53.206Z,15.09
2023-10-10T14:50:24.635Z,15.15
2023-10-10T14:52:52.692Z,15.20
2023-10-10T14:55:26.907Z,15.15
2023-10-10T14:57:56.486Z,15.19
2023-10-10T15:00:28.547Z,15.18
2023-10-10T15:02:56.735Z,15.21
2023-10-10T15:05:27.852Z,15.06
2023-10-10T15:07:55.714Z,14.65
2023-10-10T15:10:27.725Z,14.57
2023-10-10T15:12:56.037Z,14.48
2023-10-10T15:15:24.576Z,14.40
2023-10-10T15:17:52.727Z,14.17
2023-10-10T15:20:20.181Z,14.15
2023-10-10T15:22:47.779Z,14.00
2023-10-10T15:25:16.568Z,13.91
2023-10-10T15:27:43.990Z,13.68
2023-10-10T15:30:11.923Z,13.66
2023-10-10T15:32:48.384Z,13.53
2023-10-10T15:35:18.463Z,13.36
2023-10-10T15:37:46.006Z,13.20
2023-10-10T15:40:22.384Z,12.99
2023-10-10T15:42:51.935Z,12.95
2023-10-10T15:45:22.311Z,12.84
2023-10-10T15:47:50.720Z,12.75
2023-10-10T15:50:18.078Z,12.64
2023-10-10T15:52:52.453Z,12.51
2023-10-10T15:55:34.324Z,12.46
2023-10-10T15:58:01.562Z,12.37
2023-10-10T16:00:35.015Z,12.26
2023-10-10T16:03:08.559Z,12.18
2023-10-10T16:05:42.904Z,12.05
2023-10-10T16:08:10.414Z,11.88
2023-10-10T16:10:41.706Z,11.94
2023-10-10T16:13:09.939Z,11.80
2023-10-10T16:15:38.252Z,11.83
2023-10-10T16:18:06.822Z,11.70
2023-10-10T16:20:37.103Z,11.59
2023-10-10T16:23:09.645Z,11.53
2023-10-10T16:25:38.656Z,11.44
2023-10-10T16:28:07.210Z,11.41
2023-10-10T16:30:40.227Z,11.22
2023-10-10T16:33:10.106Z,11.34
2023-10-10T16:35:41.558Z,11.24
2023-10-10T16:38:08.836Z,11.11
2023-10-10T16:40:35.869Z,11.12
2023-10-10T16:43:03.455Z,11.11
2023-10-10T16:45:33.934Z,11.06
2023-10-10T16:48:02.890Z,11.09
2023-10-10T16:50:29.999Z,10.96
2023-10-10T16:53:09.975Z,11.11
2023-10-10T16:55:42.623Z,11.16
2023-10-10T16:58:16.192Z,11.27
2023-10-10T17:00:49.141Z,11.35
2023-10-10T17:03:18.275Z,11.33
2023-10-10T17:05:52.723Z,11.42
2023-10-10T17:08:20.785Z,11.46
2023-10-10T17:10:50.684Z,11.45
2023-10-10T17:13:18.232Z,11.53
2023-10-10T17:15:48.452Z,11.57
2023-10-10T17:18:16.484Z,11.62
2023-10-10T17:20:44.045Z,11.65
2023-10-10T17:23:14.457Z,11.62
2023-10-10T17:25:42.722Z,11.62
2023-10-10T17:28:12.019Z,11.65
2023-10-10T17:30:41.688Z,11.66
2023-10-10T17:33:11.072Z,11.60
2023-10-10T17:35:42.941Z,11.68
2023-10-10T17:38:12.656Z,11.69
2023-10-10T17:40:42.830Z,11.71
2023-10-10T17:43:11.843Z,11.49
2023-10-10T17:45:43.945Z,11.61
2023-10-10T17:48:16.405Z,11.58
2023-10-10T17:50:46.931Z,11.57
2023-10-10T17:53:16.005Z,11.50
2023-10-10T17:55:43.829Z,11.45
2023-10-10T17:58:11.650Z,11.44
2023-10-10T18:00:38.621Z,11.59
2023-10-10T18:03:06.739Z,11.55
2023-10-10T18:05:44.515Z,11.45
2023-10-10T18:08:13.240Z,11.49
2023-10-10T18:10:40.173Z,11.46
2023-10-10T18:13:14.333Z,11.50
2023-10-10T18:15:42.351Z,11.51
2023-10-10T18:18:09.860Z,11.51
2023-10-10T18:20:43.884Z,11.50
2023-10-10T18:23:11.410Z,11.54
2023-10-10T18:25:41.732Z,11.55
2023-10-10T18:28:09.788Z,11.54
2023-10-10T18:30:38.493Z,11.53
2023-10-10T18:33:09.612Z,11.52
2023-10-10T18:35:36.874Z,11.52
2023-10-10T18:38:05.962Z,11.50
2023-10-10T18:40:32.961Z,11.38
2023-10-10T18:43:00.227Z,11.52
2023-10-10T18:45:30.363Z,11.53
2023-10-10T18:47:57.911Z,11.52
2023-10-10T18:50:25.005Z,11.50
2023-10-10T18:52:54.495Z,11.29
2023-10-10T18:55:26.574Z,11.44
2023-10-10T18:58:01.352Z,11.42
2023-10-10T19:00:34.076Z,11.21
2023-10-10T19:03:01.173Z,11.39
2023-10-10T19:05:29.279Z,11.37
2023-10-10T19:07:58.542Z,11.24
2023-10-10T19:10:29.387Z,11.25
2023-10-10T19:12:57.413Z,11.30
2023-10-10T19:15:27.379Z,11.30
2023-10-10T19:17:59.815Z,11.23
2023-10-10T19:20:34.000Z,11.28
2023-10-10T19:23:05.698Z,11.30
2023-10-10T19:25:33.561Z,11.24
2023-10-10T19:28:00.856Z,11.18
2023-10-10T19:30:34.565Z,11.09
2023-10-10T19:33:02.412Z,11.18
2023-10-10T19:35:29.845Z,11.06
2023-10-10T19:37:57.267Z,10.99
2023-10-10T19:40:29.374Z,11.01
2023-10-10T19:42:58.669Z,10.97
2023-10-10T19:45:30.418Z,10.92
2023-10-10T19:48:04.054Z,10.78
2023-10-10T19:50:37.811Z,10.84
2023-10-10T19:53:05.362Z,10.83
2023-10-10T19:55:32.645Z,10.86
2023-10-10T19:57:59.816Z,10.89
2023-10-10T20:00:27.702Z,10.91
2023-10-10T20:02:57.759Z,10.84
2023-10-10T20:05:25.299Z,10.88
2023-10-10T20:07:53.177Z,10.90
2023-10-10T20:10:21.740Z,10.91
2023-10-10T20:12:53.881Z,10.89
2023-10-10T20:15:27.972Z,10.83
2023-10-10T20:17:59.652Z,10.74
2023-10-10T20:20:28.142Z,10.72
2023-10-10T20:22:58.235Z,10.63
2023-10-10T20:25:25.266Z,10.45
2023-10-10T20:27:52.451Z,10.48
2023-10-10T20:30:21.684Z,10.27
2023-10-10T20:32:52.985Z,10.38
2023-10-10T20:35:27.736Z,10.35
2023-10-10T20:37:57.333Z,10.30
2023-10-10T20:40:30.658Z,10.40
2023-10-10T20:43:01.743Z,10.35
2023-10-10T20:45:32.544Z,10.21
2023-10-10T20:47:59.904Z,10.29
2023-10-10T20:50:32.588Z,10.31
2023-10-10T20:53:01.534Z,10.29
2023-10-10T20:55:30.013Z,10.26
2023-10-10T20:57:58.685Z,10.27
2023-10-10T21:00:30.118Z,10.27
2023-10-10T21:03:07.199Z,10.27
2023-10-10T21:05:36.096Z,10.33
2023-10-10T21:08:04.932Z,10.33
2023-10-10T21:10:32.103Z,10.26
2023-10-10T21:12:59.517Z,10.22
2023-10-10T21:15:27.756Z,10.16
2023-10-10T21:18:00.099Z,10.11
2023-10-10T21:20:39.752Z,10.10
2023-10-10T21:23:12.655Z,10.06
2023-10-10T21:25:42.458Z,10.04
2023-10-10T21:28:09.886Z,9.98
2023-10-10T21:30:40.323Z,10.09
2023-10-10T21:33:08.111Z,10.05
2023-10-10T21:35:35.654Z,10.16
2023-10-10T21:38:03.609Z,10.15
2023-10-10T21:40:33.994Z,10.08
2023-10-10T21:43:01.233Z,10.04
2023-10-10T21:45:33.422Z,10.04
2023-10-10T21:48:04.808Z,10.00
2023-10-10T21:50:32.607Z,10.08
2023-10-10T21:53:01.919Z,10.10
2023-10-10T21:55:29.305Z,10.12
2023-10-10T21:57:57.335Z,10.13
2023-10-10T22:00:45.753Z,10.10
2023-10-10T22:03:15.241Z,10.17
2023-10-10T22:05:46.589Z,10.18
2023-10-10T22:08:14.008Z,10.24
2023-10-10T22:10:43.243Z,10.30
2023-10-10T22:13:12.495Z,10.25
2023-10-10T22:15:39.988Z,10.33
2023-10-10T22:18:07.429Z,10.38
2023-10-10T22:20:35.468Z,10.37
2023-10-10T22:23:05.588Z,10.39
2023-10-10T22:25:35.429Z,10.38
2023-10-10T22:28:05.047Z,10.39
2023-10-10T22:30:38.768Z,10.36
2023-10-10T22:33:12.214Z,10.39
2023-10-10T22:35:40.406Z,10.38
2023-10-10T22:38:07.875Z,10.32
2023-10-10T22:40:35.212Z,10.29
2023-10-10T22:43:04.241Z,10.27
2023-10-10T22:45:36.416Z,10.15
2023-10-10T22:48:05.409Z,10.25
2023-10-10T22:50:33.393Z,10.24
2023-10-10T22:53:02.897Z,10.29
2023-10-10T22:55:34.870Z,10.26
2023-10-10T22:58:07.950Z,10.24
2023-10-10T23:00:39.838Z,10.13
2023-10-10T23:03:12.323Z,10.00
2023-10-10T23:05:41.023Z,10.10
2023-10-10T23:08:08.853Z,10.12
2023-10-10T23:10:37.907Z,10.19
2023-10-10T23:13:05.102Z,10.25
2023-10-10T23:15:32.224Z,10.30
2023-10-10T23:18:01.509Z,10.31
2023-10-10T23:20:30.562Z,10.36
2023-10-10T23:23:00.085Z,10.26
2023-10-10T23:25:27.595Z,10.42
2023-10-10T23:27:57.308Z,10.41
2023-10-10T23:30:28.868Z,10.43
2023-10-10T23:32:58.230Z,10.41
2023-10-10T23:35:25.862Z,10.39
2023-10-10T23:38:06.559Z,10.34
2023-10-10T23:40:42.303Z,10.27
2023-10-10T23:43:17.515Z,10.10
2023-10-10T23:45:44.852Z,10.07
2023-10-10T23:48:17.078Z,9.96
2023-10-10T23:50:45.184Z,9.92
2023-10-10T23:53:15.521Z,9.84
2023-10-10T23:55:46.746Z,9.71
2023-10-10T23:58:14.103Z,9.75
